createdAt,value
2023-04-18T00:01:12.865Z,12.31
2023-04-18T00:03:41.913Z,12.33
2023-04-18T00:06:11.411Z,12.31
2023-04-18T00:08:41.849Z,12.27
2023-04-18T00:11:11.860Z,12.29
2023-04-18T00:13:41.569Z,12.32
2023-04-18T00:16:13.794Z,12.34
2023-04-18T00:18:42.767Z,12.30
2023-04-18T00:21:12.459Z,12.29
2023-04-18T00:23:42.198Z,12.28
2023-04-18T00:26:11.137Z,12.29
2023-04-18T00:28:40.152Z,12.31
2023-04-18T00:31:09.473Z,12.33
2023-04-18T00:33:39.434Z,12.35
2023-04-18T00:36:09.644Z,12.36
2023-04-18T00:38:38.653Z,12.39
2023-04-18T00:41:07.525Z,12.48
2023-04-18T00:43:37.627Z,12.52
2023-04-18T00:46:06.952Z,12.54
2023-04-18T00:48:36.634Z,12.55
2023-04-18T00:51:07.908Z,12.53
2023-04-18T00:53:37.917Z,12.49
2023-04-18T00:56:08.166Z,12.52
2023-04-18T00:58:41.074Z,12.55
2023-04-18T01:01:10.208Z,12.56
2023-04-18T01:03:41.529Z,12.54
2023-04-18T01:06:10.675Z,12.53
2023-04-18T01:08:39.528Z,12.49
2023-04-18T01:11:08.180Z,12.48
2023-04-18T01:13:37.707Z,12.55
2023-04-18T01:16:06.793Z,12.61
2023-04-18T01:18:36.003Z,12.63
2023-04-18T01:21:06.564Z,12.65
2023-04-18T01:23:36.029Z,12.64
2023-04-18T01:26:04.987Z,12.64
2023-04-18T01:28:37.941Z,12.65
2023-04-18T01:31:07.550Z,12.70
2023-04-18T01:33:37.499Z,12.75
2023-04-18T01:36:06.986Z,12.77
2023-04-18T01:38:36.472Z,12.75
2023-04-18T01:41:05.298Z,12.70
2023-04-18T01:43:34.051Z,12.67
2023-04-18T01:46:03.293Z,12.67
2023-04-18T01:48:33.878Z,12.66
2023-04-18T01:51:02.654Z,12.66
2023-04-18T01:53:32.109Z,12.64
2023-04-18T01:56:00.914Z,12.63
2023-04-18T01:58:29.776Z,12.61
2023-04-18T02:00:58.912Z,12.63
2023-04-18T02:03:28.345Z,12.67
2023-04-18T02:05:57.568Z,12.68
2023-04-18T02:08:26.782Z,12.69
2023-04-18T02:10:55.849Z,12.68
2023-04-18T02:13:25.195Z,12.75
2023-04-18T02:15:54.346Z,12.83
2023-04-18T02:18:25.380Z,12.88
2023-04-18T02:20:54.337Z,12.90
2023-04-18T02:23:23.067Z,12.94
2023-04-18T02:25:52.080Z,12.96
2023-04-18T02:28:20.960Z,12.99
2023-04-18T02:30:50.244Z,13.02
2023-04-18T02:33:18.972Z,13.00
2023-04-18T02:35:48.170Z,12.91
2023-04-18T02:38:17.219Z,12.86
2023-04-18T02:40:46.512Z,12.86
2023-04-18T02:43:15.165Z,12.88
2023-04-18T02:45:44.365Z,12.88
2023-04-18T02:48:13.529Z,12.84
2023-04-18T02:50:42.786Z,12.83
2023-04-18T02:53:11.784Z,12.84
2023-04-18T02:55:40.961Z,12.84
2023-04-18T02:58:09.853Z,12.76
2023-04-18T03:00:38.791Z,12.70
2023-04-18T03:03:07.735Z,12.66
2023-04-18T03:05:36.519Z,12.68
2023-04-18T03:08:06.036Z,12.68
2023-04-18T03:10:35.400Z,12.64
2023-04-18T03:13:04.246Z,12.59
2023-04-18T03:15:33.241Z,12.57
2023-04-18T03:18:02.433Z,12.61
2023-04-18T03:20:31.386Z,12.66
2023-04-18T03:23:00.504Z,12.67
2023-04-18T03:25:30.063Z,12.71
2023-04-18T03:27:58.847Z,12.77
2023-04-18T03:30:28.767Z,12.85
2023-04-18T03:32:59.026Z,12.88
2023-04-18T03:35:27.783Z,12.87
2023-04-18T03:37:57.019Z,12.86
2023-04-18T03:40:26.185Z,12.86
2023-04-18T03:42:56.273Z,12.83
2023-04-18T03:45:25.227Z,12.80
2023-04-18T03:47:55.718Z,12.75
2023-04-18T03:50:26.191Z,12.68
2023-04-18T03:52:55.457Z,12.67
2023-04-18T03:55:26.913Z,12.68
2023-04-18T03:57:55.881Z,12.66
2023-04-18T04:00:24.905Z,12.63
2023-04-18T04:02:53.803Z,12.61
2023-04-18T04:05:22.970Z,12.64
2023-04-18T04:07:52.297Z,12.64
2023-04-18T04:10:21.216Z,12.67
2023-04-18T04:12:50.118Z,12.71
2023-04-18T04:15:18.981Z,12.79
2023-04-18T04:17:47.609Z,12.84
2023-04-18T04:20:17.341Z,12.83
2023-04-18T04:22:46.223Z,12.74
2023-04-18T04:25:15.594Z,12.64
2023-04-18T04:27:45.060Z,12.59
2023-04-18T04:30:14.321Z,12.65
2023-04-18T04:32:44.974Z,12.65
2023-04-18T04:35:14.948Z,12.63
2023-04-18T04:37:44.572Z,12.67
2023-04-18T04:40:13.638Z,12.65
2023-04-18T04:42:42.906Z,12.65
2023-04-18T04:45:12.877Z,12.69
2023-04-18T04:47:41.791Z,12.73
2023-04-18T04:50:15.095Z,12.82
2023-04-18T04:52:44.084Z,12.90
2023-04-18T04:55:13.400Z,12.88
2023-04-18T04:57:42.120Z,12.84
2023-04-18T05:00:11.720Z,12.84
2023-04-18T05:02:40.808Z,12.89
2023-04-18T05:05:09.765Z,12.92
2023-04-18T05:07:38.464Z,12.89
2023-04-18T05:10:07.734Z,12.89
2023-04-18T05:12:36.829Z,12.90
2023-04-18T05:15:06.471Z,12.95
2023-04-18T05:17:35.860Z,13.00
2023-04-18T05:20:06.044Z,13.01
2023-04-18T05:22:36.128Z,13.05
2023-04-18T05:25:05.576Z,13.12
2023-04-18T05:27:34.798Z,13.21
2023-04-18T05:30:03.579Z,13.23
2023-04-18T05:32:32.767Z,13.21
2023-04-18T05:35:01.679Z,13.24
2023-04-18T05:37:30.760Z,13.30
2023-04-18T05:40:01.152Z,13.29
2023-04-18T05:42:30.590Z,13.29
2023-04-18T05:45:00.198Z,13.33
2023-04-18T05:47:30.701Z,13.34
2023-04-18T05:50:00.070Z,13.36
2023-04-18T05:52:31.005Z,13.35
2023-04-18T05:55:01.295Z,13.29
2023-04-18T05:57:30.390Z,13.30
2023-04-18T05:59:59.994Z,13.32
2023-04-18T06:02:29.640Z,13.33
2023-04-18T06:05:00.803Z,13.30
2023-04-18T06:07:30.478Z,13.30
2023-04-18T06:09:59.481Z,13.38
2023-04-18T06:12:29.331Z,13.49
2023-04-18T06:14:58.694Z,13.56
2023-04-18T06:17:27.954Z,13.62
2023-04-18T06:19:56.647Z,13.66
2023-04-18T06:22:25.802Z,13.71
2023-04-18T06:24:56.330Z,13.81
2023-04-18T06:27:31.579Z,13.86
2023-04-18T06:30:00.674Z,13.89
2023-04-18T06:32:29.550Z,13.97
2023-04-18T06:34:58.780Z,14.12
2023-04-18T06:37:28.010Z,14.25
2023-04-18T06:39:56.633Z,14.31
2023-04-18T06:42:25.860Z,14.46
2023-04-18T06:44:54.837Z,14.67
2023-04-18T06:47:24.180Z,14.98
2023-04-18T06:49:53.692Z,15.28
2023-04-18T06:52:24.360Z,15.62
2023-04-18T06:54:54.419Z,15.86
2023-04-18T06:57:24.293Z,16.01
2023-04-18T06:59:53.532Z,16.03
2023-04-18T07:02:23.194Z,16.09
2023-04-18T07:04:53.108Z,16.11
2023-04-18T07:07:22.654Z,16.07
2023-04-18T07:09:53.237Z,15.98
2023-04-18T07:12:22.467Z,16.07
2023-04-18T07:14:52.883Z,16.19
2023-04-18T07:17:22.231Z,16.45
2023-04-18T07:19:51.195Z,16.77
2023-04-18T07:22:20.112Z,17.13
2023-04-18T07:24:49.065Z,17.32
2023-04-18T07:27:18.225Z,17.41
2023-04-18T07:29:47.661Z,17.51
2023-04-18T07:32:16.488Z,17.57
2023-04-18T07:34:45.808Z,17.63
2023-04-18T07:37:15.375Z,17.64
2023-04-18T07:39:44.237Z,17.74
2023-04-18T07:42:13.683Z,17.84
2023-04-18T07:44:43.156Z,17.91
2023-04-18T07:47:12.149Z,18.08
2023-04-18T07:49:42.479Z,18.17
2023-04-18T07:52:11.962Z,18.27
2023-04-18T07:54:40.991Z,18.28
2023-04-18T07:57:11.240Z,18.26
2023-04-18T07:59:40.349Z,18.29
2023-04-18T08:02:10.206Z,18.31
2023-04-18T08:04:40.767Z,18.41
2023-04-18T08:07:10.131Z,18.53
2023-04-18T08:09:39.201Z,18.63
2023-04-18T08:12:08.410Z,18.62
2023-04-18T08:14:37.672Z,18.61
2023-04-18T08:17:06.422Z,18.67
2023-04-18T08:19:35.576Z,18.64
2023-04-18T08:22:10.812Z,18.61
2023-04-18T08:24:41.697Z,18.59
2023-04-18T08:27:15.725Z,18.61
2023-04-18T08:29:45.312Z,18.63
2023-04-18T08:32:14.309Z,18.63
2023-04-18T08:34:44.093Z,18.70
2023-04-18T08:37:13.612Z,18.84
2023-04-18T08:39:42.783Z,18.95
2023-04-18T08:42:16.203Z,19.02
2023-04-18T08:44:48.304Z,19.15
2023-04-18T08:47:17.942Z,19.25
2023-04-18T08:49:47.602Z,19.42
2023-04-18T08:52:18.177Z,19.58
2023-04-18T08:54:47.844Z,19.74
2023-04-18T08:57:24.173Z,19.98
2023-04-18T08:59:54.357Z,20.54
2023-04-18T09:02:39.313Z,21.04
2023-04-18T09:05:13.362Z,21.81
2023-04-18T09:07:43.319Z,22.15
2023-04-18T09:10:14.256Z,22.38
2023-04-18T09:12:56.134Z,22.63
2023-04-18T09:15:30.585Z,22.78
2023-04-18T09:18:03.422Z,23.39
2023-04-18T09:20:36.179Z,23.46
2023-04-18T09:23:11.481Z,23.38
2023-04-18T09:25:46.983Z,23.29
2023-04-18T09:28:24.535Z,23.01
2023-04-18T09:30:54.932Z,22.78
2023-04-18T09:33:34.978Z,22.80
2023-04-18T09:36:29.752Z,22.89
2023-04-18T09:38:58.866Z,23.21
2023-04-18T09:41:28.056Z,23.34
2023-04-18T09:44:15.853Z,23.31
2023-04-18T09:46:47.684Z,23.50
2023-04-18T09:49:18.200Z,24.18
2023-04-18T09:51:50.493Z,24.59
2023-04-18T09:54:21.208Z,24.92
2023-04-18T09:56:54.710Z,25.36
2023-04-18T09:59:43.838Z,25.46
2023-04-18T10:02:21.564Z,25.21
2023-04-18T10:04:52.710Z,25.07
2023-04-18T10:07:22.208Z,25.75
2023-04-18T10:09:52.819Z,25.96
2023-04-18T10:12:22.076Z,25.97
2023-04-18T10:14:51.782Z,26.26
2023-04-18T10:17:24.257Z,25.94
2023-04-18T10:20:10.871Z,25.81
2023-04-18T10:22:40.388Z,25.55
2023-04-18T10:25:09.961Z,25.21
2023-04-18T10:27:59.273Z,24.68
2023-04-18T10:30:43.043Z,24.11
2023-04-18T10:33:30.490Z,23.79
2023-04-18T10:36:09.854Z,23.43
2023-04-18T10:38:46.338Z,23.29
2023-04-18T10:41:24.683Z,23.25
2023-04-18T10:44:18.879Z,23.08
2023-04-18T10:46:53.522Z,22.84
2023-04-18T10:49:34.583Z,22.86
2023-04-18T10:52:06.730Z,22.76
2023-04-18T10:54:48.558Z,22.71
2023-04-18T10:57:17.651Z,22.50
2023-04-18T10:59:51.944Z,22.29
2023-04-18T11:02:32.897Z,22.25
2023-04-18T11:05:07.630Z,22.14
2023-04-18T11:07:48.840Z,22.08
2023-04-18T11:10:23.481Z,21.86
2023-04-18T11:12:53.561Z,21.63
2023-04-18T11:15:25.780Z,21.69
2023-04-18T11:18:02.719Z,21.67
2023-04-18T11:20:50.574Z,21.64
2023-04-18T11:23:23.554Z,21.71
2023-04-18T11:25:55.063Z,22.01
2023-04-18T11:28:25.580Z,21.91
2023-04-18T11:30:59.932Z,21.96
2023-04-18T11:33:29.991Z,21.99
2023-04-18T11:35:59.916Z,21.95
2023-04-18T11:38:34.214Z,21.96
2023-04-18T11:41:03.779Z,21.99
2023-04-18T11:43:32.452Z,22.07
2023-04-18T11:46:02.255Z,22.21
2023-04-18T11:48:38.473Z,22.16
2023-04-18T11:51:09.723Z,22.29
2023-04-18T11:53:40.046Z,22.33
2023-04-18T11:56:09.216Z,22.40
2023-04-18T11:58:38.672Z,22.54
2023-04-18T12:01:27.822Z,22.81
2023-04-18T12:04:08.428Z,22.70
2023-04-18T12:06:52.893Z,22.67
2023-04-18T12:09:25.433Z,22.76
2023-04-18T12:12:03.327Z,22.70
2023-04-18T12:14:32.274Z,22.75
2023-04-18T12:17:04.684Z,22.81
2023-04-18T12:19:34.557Z,22.93
2023-04-18T12:22:05.621Z,23.18
2023-04-18T12:24:34.805Z,23.71
2023-04-18T12:27:04.225Z,24.41
2023-04-18T12:29:33.640Z,24.96
2023-04-18T12:32:02.839Z,25.71
2023-04-18T12:34:31.857Z,26.38
2023-04-18T12:37:01.212Z,27.39
2023-04-18T12:39:31.333Z,28.03
2023-04-18T12:42:01.456Z,28.08
2023-04-18T12:44:30.491Z,27.81
2023-04-18T12:46:59.606Z,27.52
2023-04-18T12:49:28.325Z,27.74
2023-04-18T12:51:57.294Z,28.07
2023-04-18T12:54:26.331Z,28.63
2023-04-18T12:56:56.171Z,29.65
2023-04-18T12:59:25.426Z,29.69
2023-04-18T13:01:54.373Z,30.52
2023-04-18T13:04:23.446Z,31.14
2023-04-18T13:06:52.261Z,31.31
2023-04-18T13:09:21.416Z,30.71
2023-04-18T13:11:50.411Z,30.44
2023-04-18T13:14:19.709Z,29.67
2023-04-18T13:16:49.749Z,28.97
2023-04-18T13:19:18.968Z,28.25
2023-04-18T13:21:49.572Z,27.54
2023-04-18T13:24:18.680Z,27.02
2023-04-18T13:26:48.235Z,26.41
2023-04-18T13:29:19.658Z,25.52
2023-04-18T13:31:49.455Z,24.77
2023-04-18T13:34:18.554Z,24.33
2023-04-18T13:36:47.475Z,24.16
2023-04-18T13:39:17.189Z,23.89
2023-04-18T13:41:46.433Z,23.68
2023-04-18T13:44:15.588Z,23.59
2023-04-18T13:46:45.484Z,23.84
2023-04-18T13:49:14.829Z,24.11
2023-04-18T13:51:43.928Z,23.96
2023-04-18T13:54:15.940Z,23.66
2023-04-18T13:56:45.112Z,23.52
2023-04-18T13:59:14.210Z,23.60
2023-04-18T14:01:43.639Z,23.46
2023-04-18T14:04:12.944Z,23.35
2023-04-18T14:06:42.443Z,23.42
2023-04-18T14:09:11.695Z,23.09
2023-04-18T14:11:41.271Z,23.02
2023-04-18T14:14:10.711Z,23.07
2023-04-18T14:16:39.792Z,23.13
2023-04-18T14:19:08.674Z,22.88
2023-04-18T14:21:37.566Z,22.82
2023-04-18T14:24:07.499Z,22.80
2023-04-18T14:26:36.604Z,22.56
2023-04-18T14:29:06.812Z,22.44
2023-04-18T14:31:37.000Z,22.56
2023-04-18T14:34:09.370Z,22.67
2023-04-18T14:36:41.670Z,22.67
2023-04-18T14:39:11.904Z,22.61
2023-04-18T14:41:41.763Z,22.53
2023-04-18T14:44:12.122Z,22.48
2023-04-18T14:46:43.295Z,22.37
2023-04-18T14:49:12.754Z,22.27
2023-04-18T14:51:41.710Z,22.20
2023-04-18T14:54:10.937Z,22.20
2023-04-18T14:56:39.898Z,22.33
2023-04-18T14:59:09.324Z,22.46
2023-04-18T15:01:38.593Z,22.61
2023-04-18T15:04:08.166Z,22.45
2023-04-18T15:06:37.609Z,22.32
2023-04-18T15:09:07.061Z,22.22
2023-04-18T15:11:35.929Z,22.00
2023-04-18T15:14:05.210Z,21.70
2023-04-18T15:16:35.949Z,21.36
2023-04-18T15:19:05.022Z,20.99
2023-04-18T15:21:35.633Z,20.83
2023-04-18T15:24:05.060Z,20.58
2023-04-18T15:26:33.875Z,20.48
2023-04-18T15:29:06.324Z,20.37
2023-04-18T15:31:37.143Z,20.33
2023-04-18T15:34:08.646Z,20.29
2023-04-18T15:36:37.671Z,20.28
2023-04-18T15:39:09.455Z,20.25
2023-04-18T15:41:39.380Z,20.16
2023-04-18T15:44:09.567Z,20.00
2023-04-18T15:46:39.126Z,19.88
2023-04-18T15:49:08.163Z,19.84
2023-04-18T15:51:37.903Z,19.77
2023-04-18T15:54:07.955Z,19.72
2023-04-18T15:56:38.111Z,19.75
2023-04-18T15:59:07.566Z,19.73
2023-04-18T16:01:36.894Z,19.70
2023-04-18T16:04:06.015Z,19.65
2023-04-18T16:06:36.415Z,19.58
2023-04-18T16:09:07.005Z,19.43
2023-04-18T16:11:36.422Z,19.33
2023-04-18T16:14:05.721Z,19.25
2023-04-18T16:16:35.186Z,19.19
2023-04-18T16:19:05.867Z,19.21
2023-04-18T16:21:34.596Z,19.29
2023-04-18T16:24:04.393Z,19.17
2023-04-18T16:26:35.464Z,19.10
2023-04-18T16:29:06.411Z,19.07
2023-04-18T16:31:37.205Z,18.98
2023-04-18T16:34:06.957Z,18.87
2023-04-18T16:36:36.344Z,18.72
2023-04-18T16:39:06.272Z,18.61
2023-04-18T16:41:36.293Z,18.55
2023-04-18T16:44:07.044Z,18.47
2023-04-18T16:46:36.814Z,18.42
2023-04-18T16:49:07.222Z,18.37
2023-04-18T16:51:37.733Z,18.34
2023-04-18T16:54:09.969Z,18.24
2023-04-18T16:56:40.333Z,18.19
2023-04-18T16:59:12.017Z,18.15
2023-04-18T17:01:42.832Z,18.10
2023-04-18T17:04:13.528Z,18.02
2023-04-18T17:06:44.759Z,18.01
2023-04-18T17:09:16.555Z,17.97
2023-04-18T17:11:50.319Z,17.90
2023-04-18T17:14:24.277Z,17.81
2023-04-18T17:16:54.915Z,17.73
2023-04-18T17:19:27.180Z,17.65
2023-04-18T17:21:56.735Z,17.59
2023-04-18T17:24:29.059Z,17.47
2023-04-18T17:26:58.765Z,17.38
2023-04-18T17:29:29.600Z,17.32
2023-04-18T17:32:00.517Z,17.28
2023-04-18T17:34:32.380Z,17.20
2023-04-18T17:37:05.097Z,17.09
2023-04-18T17:39:37.106Z,16.96
2023-04-18T17:42:09.223Z,16.85
2023-04-18T17:44:41.848Z,16.76
2023-04-18T17:47:13.318Z,16.67
2023-04-18T17:49:43.474Z,16.58
2023-04-18T17:52:15.695Z,16.56
2023-04-18T17:54:46.099Z,16.53
2023-04-18T17:57:17.864Z,16.49
2023-04-18T17:59:50.495Z,16.43
2023-04-18T18:02:24.420Z,16.37
2023-04-18T18:04:55.594Z,16.35
2023-04-18T18:07:26.251Z,16.32
2023-04-18T18:09:57.285Z,16.27
2023-04-18T18:12:30.124Z,16.21
2023-04-18T18:15:01.345Z,16.12
2023-04-18T18:17:31.581Z,16.02
2023-04-18T18:20:03.509Z,15.93
2023-04-18T18:22:38.938Z,15.89
2023-04-18T18:25:12.833Z,15.86
2023-04-18T18:27:45.292Z,15.86
2023-04-18T18:30:18.173Z,15.82
2023-04-18T18:32:50.494Z,15.79
2023-04-18T18:35:20.228Z,15.77
2023-04-18T18:37:51.919Z,15.72
2023-04-18T18:40:24.165Z,15.68
2023-04-18T18:42:57.983Z,15.61
2023-04-18T18:45:27.438Z,15.58
2023-04-18T18:47:56.785Z,15.56
2023-04-18T18:50:26.057Z,15.51
2023-04-18T18:52:56.164Z,15.50
2023-04-18T18:55:26.664Z,15.48
2023-04-18T18:57:57.381Z,15.42
2023-04-18T19:00:27.414Z,15.37
2023-04-18T19:02:57.442Z,15.40
2023-04-18T19:05:27.619Z,15.36
2023-04-18T19:07:58.126Z,15.33
2023-04-18T19:10:27.743Z,15.31
2023-04-18T19:12:57.425Z,15.26
2023-04-18T19:15:27.007Z,15.22
2023-04-18T19:17:57.612Z,15.18
2023-04-18T19:20:29.150Z,15.12
2023-04-18T19:22:59.044Z,15.11
2023-04-18T19:25:29.237Z,15.13
2023-04-18T19:27:59.120Z,15.09
2023-04-18T19:30:29.888Z,15.06
2023-04-18T19:33:01.638Z,15.05
2023-04-18T19:35:31.653Z,15.06
2023-04-18T19:38:04.211Z,15.03
2023-04-18T19:40:37.868Z,14.95
2023-04-18T19:43:11.485Z,14.87
2023-04-18T19:45:43.612Z,14.85
2023-04-18T19:48:15.614Z,14.79
2023-04-18T19:50:46.202Z,14.74
2023-04-18T19:53:19.678Z,14.65
2023-04-18T19:55:50.185Z,14.54
2023-04-18T19:58:49.978Z,14.49
2023-04-18T20:01:22.855Z,14.38
2023-04-18T20:03:56.674Z,14.39
2023-04-18T20:06:28.928Z,14.35
2023-04-18T20:09:00.054Z,14.27
2023-04-18T20:11:30.403Z,14.24
2023-04-18T20:14:02.833Z,14.20
2023-04-18T20:16:35.112Z,14.19
2023-04-18T20:19:06.688Z,14.25
2023-04-18T20:21:36.958Z,14.27
2023-04-18T20:24:10.187Z,14.27
2023-04-18T20:26:39.785Z,14.26
2023-04-18T20:29:09.814Z,14.23
2023-04-18T20:31:43.101Z,14.20
2023-04-18T20:38:31.830Z,14.05
2023-04-18T20:41:04.380Z,13.96
2023-04-18T20:43:38.737Z,13.78
2023-04-18T20:46:13.652Z,13.62
2023-04-18T20:48:49.910Z,13.53
2023-04-18T20:51:21.380Z,13.52
2023-04-18T20:53:51.339Z,13.48
2023-04-18T20:56:20.790Z,13.43
2023-04-18T20:58:50.610Z,13.39
2023-04-18T21:01:21.001Z,13.34
2023-04-18T21:03:51.065Z,13.33
2023-04-18T21:06:22.817Z,13.24
2023-04-18T21:08:53.760Z,13.18
2023-04-18T21:11:24.124Z,13.11
2023-04-18T21:13:53.568Z,13.07
2023-04-18T21:16:24.889Z,13.04
2023-04-18T21:18:57.709Z,13.02
2023-04-18T21:21:27.998Z,12.96
2023-04-18T21:23:58.148Z,12.88
2023-04-18T21:26:28.024Z,12.83
2023-04-18T21:28:58.290Z,12.81
2023-04-18T21:31:30.600Z,12.77
2023-04-18T21:34:03.644Z,12.75
2023-04-18T21:36:34.516Z,12.70
2023-04-18T21:39:04.705Z,12.68
2023-04-18T21:41:34.625Z,12.70
2023-04-18T21:44:03.826Z,12.73
2023-04-18T21:46:33.398Z,12.67
2023-04-18T21:49:02.400Z,12.63
2023-04-18T21:51:32.742Z,12.62
2023-04-18T21:54:02.731Z,12.61
2023-04-18T21:56:32.124Z,12.57
2023-04-18T21:59:01.724Z,12.56
2023-04-18T22:01:31.074Z,12.55
2023-04-18T22:04:01.701Z,12.51
2023-04-18T22:06:32.894Z,12.45
2023-04-18T22:09:02.242Z,12.43
2023-04-18T22:11:31.352Z,12.42
2023-04-18T22:14:00.989Z,12.36
2023-04-18T22:16:31.130Z,12.26
2023-04-18T22:19:01.868Z,12.22
2023-04-18T22:21:31.934Z,12.22
2023-04-18T22:24:01.446Z,12.18
2023-04-18T22:26:30.962Z,12.13
2023-04-18T22:29:01.219Z,12.12
2023-04-18T22:31:30.492Z,12.11
2023-04-18T22:34:00.032Z,12.15
2023-04-18T22:36:29.233Z,12.10
2023-04-18T22:38:59.529Z,12.04
2023-04-18T22:41:28.992Z,12.00
2023-04-18T22:43:58.312Z,12.01
2023-04-18T22:46:27.625Z,11.99
2023-04-18T22:48:57.769Z,11.94
2023-04-18T22:51:29.095Z,11.82
2023-04-18T22:53:59.531Z,11.74
2023-04-18T22:56:28.958Z,11.77
2023-04-18T22:58:58.209Z,11.85
2023-04-18T23:01:29.258Z,11.90
2023-04-18T23:03:59.305Z,11.85
2023-04-18T23:06:30.844Z,11.84
2023-04-18T23:09:00.380Z,11.79
2023-04-18T23:11:30.293Z,11.67
2023-04-18T23:13:59.126Z,11.56
2023-04-18T23:16:28.840Z,11.54
2023-04-18T23:18:57.781Z,11.61
2023-04-18T23:21:28.515Z,11.67
2023-04-18T23:23:57.609Z,11.67
2023-04-18T23:26:27.110Z,11.63
2023-04-18T23:28:56.033Z,11.58
2023-04-18T23:31:25.431Z,11.52
2023-04-18T23:33:57.012Z,11.46
2023-04-18T23:36:26.614Z,11.34
2023-04-18T23:38:55.931Z,11.23
2023-04-18T23:41:26.064Z,11.14
2023-04-18T23:43:55.529Z,11.10
2023-04-18T23:46:26.696Z,11.10
2023-04-18T23:48:55.865Z,10.99
2023-04-18T23:51:25.082Z,10.92
2023-04-18T23:53:54.246Z,10.92
2023-04-18T23:56:23.592Z,10.93
2023-04-18T23:58:54.954Z,10.89
